ROMMA est une association bénévole à but non lucratif. Votre soutien est indispensable : ADHERER à ROMMA ou FAIRE un DON

Taninges - (74, Haute-Savoie)

Vallée du Giffre (635 m)   Longitude: 06° 35' 38" E   Latitude: 46° 06' 21" N Station romma n°98
 

Détail journalier du     <<     >>

Température Precipitation Humidité Pression Vent Dir Rafale Dir. rafale Ensol.
Heure (°C) (mm) (%) (hPa) (km/h) (km/h) (min)
01:00 15.0095102103SE0
02:00 14.909510211SO5SSE0
03:00 14.80.29510201SO8ESE0
04:00 14.609510201SO6SO0
05:00 14.209010201NE6ENE0
06:00 14.20.28910202NE6ENE0
07:00 14.0091102103ENE0
08:00 14.208910211ENE6ENE0
09:00 15.808810211ENE6NE20
10:00 16.408510213O6NO20
11:00 16.708410213OSO8O0
12:00 17.508410224OSO11SO5
13:00 18.408110215OSO11OSO20
14:00 19.008210218SO18OSO15
15:00 20.407810218SO19SSO30
16:00 19.808110218SO18SO5
17:00 19.608110216OSO15OSO0
18:00 19.408110214OSO8SO0
19:00 20.407910204OSO10O40
20:00 19.308410212ENE6ENE50
21:00 17.608910222NE6NE0
22:00 16.3092102203ENE0
23:00 15.4093102205SSE0
minuit 15.4095102203SSE0

Graphique du 22-08-2019

 

Serveur OMMA